sensor_id;sensor_type;location;lat;lon;timestamp;P1;durP1;ratioP1;P2;durP2;ratioP2
17917;SDS011;9084;50.956;3.106;2022-12-11T00:01:38;14.93;;;10.80;;
17917;SDS011;9084;50.956;3.106;2022-12-11T00:04:03;16.27;;;12.17;;
17917;SDS011;9084;50.956;3.106;2022-12-11T00:06:31;14.30;;;10.97;;
17917;SDS011;9084;50.956;3.106;2022-12-11T00:08:57;13.13;;;10.33;;
17917;SDS011;9084;50.956;3.106;2022-12-11T00:11:24;15.17;;;10.30;;
17917;SDS011;9084;50.956;3.106;2022-12-11T00:13:51;13.70;;;9.47;;
17917;SDS011;9084;50.956;3.106;2022-12-11T00:16:17;13.50;;;10.30;;
17917;SDS011;9084;50.956;3.106;2022-12-11T00:18:43;12.57;;;9.53;;
17917;SDS011;9084;50.956;3.106;2022-12-11T00:21:12;13.33;;;10.10;;
17917;SDS011;9084;50.956;3.106;2022-12-11T00:23:39;13.90;;;9.90;;
17917;SDS011;9084;50.956;3.106;2022-12-11T00:26:09;12.57;;;10.80;;
17917;SDS011;9084;50.956;3.106;2022-12-11T00:28:37;13.83;;;11.30;;
17917;SDS011;9084;50.956;3.106;2022-12-11T00:31:06;13.90;;;11.43;;
17917;SDS011;9084;50.956;3.106;2022-12-11T00:33:35;14.53;;;11.87;;
17917;SDS011;9084;50.956;3.106;2022-12-11T00:36:01;13.23;;;10.50;;
17917;SDS011;9084;50.956;3.106;2022-12-11T00:38:30;13.07;;;11.30;;
17917;SDS011;9084;50.956;3.106;2022-12-11T00:40:57;14.37;;;9.83;;
17917;SDS011;9084;50.956;3.106;2022-12-11T00:43:24;14.50;;;12.03;;
17917;SDS011;9084;50.956;3.106;2022-12-11T00:45:50;13.90;;;9.67;;
17917;SDS011;9084;50.956;3.106;2022-12-11T00:48:17;16.57;;;12.40;;
17917;SDS011;9084;50.956;3.106;2022-12-11T00:50:43;18.47;;;11.63;;
17917;SDS011;9084;50.956;3.106;2022-12-11T00:53:09;15.83;;;11.00;;
17917;SDS011;9084;50.956;3.106;2022-12-11T00:55:35;12.67;;;10.33;;
17917;SDS011;9084;50.956;3.106;2022-12-11T00:58:07;13.97;;;9.50;;
17917;SDS011;9084;50.956;3.106;2022-12-11T01:00:33;14.30;;;10.43;;
17917;SDS011;9084;50.956;3.106;2022-12-11T01:02:59;16.00;;;11.03;;
17917;SDS011;9084;50.956;3.106;2022-12-11T01:05:25;14.97;;;9.73;;
17917;SDS011;9084;50.956;3.106;2022-12-11T01:07:54;14.00;;;10.20;;
17917;SDS011;9084;50.956;3.106;2022-12-11T01:10:19;13.23;;;9.83;;
17917;SDS011;9084;50.956;3.106;2022-12-11T01:13:09;13.27;;;9.87;;
17917;SDS011;9084;50.956;3.106;2022-12-11T01:15:37;14.47;;;10.00;;
17917;SDS011;9084;50.956;3.106;2022-12-11T01:18:11;15.50;;;10.90;;
17917;SDS011;9084;50.956;3.106;2022-12-11T01:20:39;14.80;;;10.90;;
17917;SDS011;9084;50.956;3.106;2022-12-11T01:23:06;13.67;;;9.93;;
17917;SDS011;9084;50.956;3.106;2022-12-11T01:25:34;16.17;;;9.57;;
17917;SDS011;9084;50.956;3.106;2022-12-11T01:28:02;14.97;;;10.10;;
17917;SDS011;9084;50.956;3.106;2022-12-11T01:30:29;14.93;;;12.30;;
17917;SDS011;9084;50.956;3.106;2022-12-11T01:32:55;17.93;;;12.50;;
17917;SDS011;9084;50.956;3.106;2022-12-11T01:35:21;15.83;;;10.43;;
17917;SDS011;9084;50.956;3.106;2022-12-11T01:37:47;14.73;;;12.33;;
17917;SDS011;9084;50.956;3.106;2022-12-11T01:40:14;16.00;;;11.63;;
17917;SDS011;9084;50.956;3.106;2022-12-11T01:42:42;14.63;;;9.30;;
17917;SDS011;9084;50.956;3.106;2022-12-11T01:47:56;15.03;;;12.80;;
17917;SDS011;9084;50.956;3.106;2022-12-11T01:50:23;15.60;;;12.50;;
17917;SDS011;9084;50.956;3.106;2022-12-11T01:52:49;14.80;;;11.63;;
17917;SDS011;9084;50.956;3.106;2022-12-11T01:55:16;14.33;;;11.43;;
17917;SDS011;9084;50.956;3.106;2022-12-11T01:57:43;12.80;;;10.10;;
17917;SDS011;9084;50.956;3.106;2022-12-11T02:00:13;13.70;;;11.97;;
17917;SDS011;9084;50.956;3.106;2022-12-11T02:02:39;14.37;;;11.60;;
17917;SDS011;9084;50.956;3.106;2022-12-11T02:05:09;14.90;;;10.37;;
17917;SDS011;9084;50.956;3.106;2022-12-11T02:07:45;16.90;;;12.23;;
17917;SDS011;9084;50.956;3.106;2022-12-11T02:10:15;18.53;;;12.40;;
17917;SDS011;9084;50.956;3.106;2022-12-11T02:12:51;15.70;;;12.63;;
17917;SDS011;9084;50.956;3.106;2022-12-11T02:15:30;13.17;;;10.70;;
17917;SDS011;9084;50.956;3.106;2022-12-11T02:28:57;15.47;;;12.17;;
17917;SDS011;9084;50.956;3.106;2022-12-11T02:31:36;16.13;;;12.17;;
17917;SDS011;9084;50.956;3.106;2022-12-11T02:36:50;14.80;;;12.13;;
17917;SDS011;9084;50.956;3.106;2022-12-11T02:39:20;16.57;;;11.07;;
17917;SDS011;9084;50.956;3.106;2022-12-11T02:41:48;16.10;;;11.03;;
17917;SDS011;9084;50.956;3.106;2022-12-11T02:44:23;16.90;;;10.67;;
17917;SDS011;9084;50.956;3.106;2022-12-11T02:46:52;16.87;;;11.00;;
17917;SDS011;9084;50.956;3.106;2022-12-11T02:49:19;15.70;;;12.87;;
17917;SDS011;9084;50.956;3.106;2022-12-11T02:51:47;15.40;;;12.13;;
17917;SDS011;9084;50.956;3.106;2022-12-11T02:54:22;17.63;;;12.23;;
17917;SDS011;9084;50.956;3.106;2022-12-11T02:56:55;16.90;;;13.40;;
17917;SDS011;9084;50.956;3.106;2022-12-11T02:59:31;15.53;;;12.87;;
17917;SDS011;9084;50.956;3.106;2022-12-11T03:02:00;18.30;;;13.10;;
17917;SDS011;9084;50.956;3.106;2022-12-11T03:04:27;16.90;;;11.27;;
17917;SDS011;9084;50.956;3.106;2022-12-11T03:06:54;15.17;;;11.93;;
17917;SDS011;9084;50.956;3.106;2022-12-11T03:09:24;14.13;;;10.50;;
17917;SDS011;9084;50.956;3.106;2022-12-11T03:11:51;15.83;;;11.40;;
17917;SDS011;9084;50.956;3.106;2022-12-11T03:14:17;17.50;;;11.83;;
17917;SDS011;9084;50.956;3.106;2022-12-11T03:17:07;17.93;;;12.63;;
17917;SDS011;9084;50.956;3.106;2022-12-11T03:19:39;17.23;;;14.47;;
17917;SDS011;9084;50.956;3.106;2022-12-11T03:22:14;17.70;;;13.77;;
17917;SDS011;9084;50.956;3.106;2022-12-11T03:25:15;18.43;;;13.27;;
17917;SDS011;9084;50.956;3.106;2022-12-11T03:27:47;16.43;;;13.90;;
17917;SDS011;9084;50.956;3.106;2022-12-11T03:30:23;18.03;;;13.57;;
17917;SDS011;9084;50.956;3.106;2022-12-11T03:32:54;17.80;;;14.40;;
17917;SDS011;9084;50.956;3.106;2022-12-11T03:35:36;17.03;;;13.53;;
17917;SDS011;9084;50.956;3.106;2022-12-11T03:38:07;17.33;;;13.50;;
17917;SDS011;9084;50.956;3.106;2022-12-11T03:40:40;16.90;;;14.07;;
17917;SDS011;9084;50.956;3.106;2022-12-11T03:43:09;16.10;;;13.90;;
17917;SDS011;9084;50.956;3.106;2022-12-11T03:45:36;16.00;;;11.20;;
17917;SDS011;9084;50.956;3.106;2022-12-11T03:48:04;15.57;;;12.27;;
17917;SDS011;9084;50.956;3.106;2022-12-11T03:50:32;17.07;;;11.73;;
17917;SDS011;9084;50.956;3.106;2022-12-11T03:52:59;17.50;;;12.27;;
17917;SDS011;9084;50.956;3.106;2022-12-11T03:55:29;17.83;;;12.80;;
17917;SDS011;9084;50.956;3.106;2022-12-11T03:57:59;16.80;;;12.93;;
17917;SDS011;9084;50.956;3.106;2022-12-11T04:00:25;18.10;;;14.97;;
17917;SDS011;9084;50.956;3.106;2022-12-11T04:02:53;16.37;;;12.77;;
17917;SDS011;9084;50.956;3.106;2022-12-11T04:05:39;16.00;;;11.80;;
17917;SDS011;9084;50.956;3.106;2022-12-11T04:08:09;18.10;;;14.67;;
17917;SDS011;9084;50.956;3.106;2022-12-11T04:10:36;16.97;;;14.27;;
17917;SDS011;9084;50.956;3.106;2022-12-11T04:13:02;18.40;;;14.97;;
17917;SDS011;9084;50.956;3.106;2022-12-11T04:15:28;16.87;;;14.17;;
17917;SDS011;9084;50.956;3.106;2022-12-11T04:17:56;16.53;;;14.73;;
17917;SDS011;9084;50.956;3.106;2022-12-11T04:20:40;18.40;;;14.87;;
17917;SDS011;9084;50.956;3.106;2022-12-11T04:23:24;17.10;;;14.97;;
17917;SDS011;9084;50.956;3.106;2022-12-11T04:26:16;16.97;;;14.67;;
17917;SDS011;9084;50.956;3.106;2022-12-11T04:28:46;18.40;;;14.17;;
17917;SDS011;9084;50.956;3.106;2022-12-11T04:31:17;18.50;;;14.80;;
17917;SDS011;9084;50.956;3.106;2022-12-11T04:33:45;19.23;;;14.13;;
17917;SDS011;9084;50.956;3.106;2022-12-11T04:36:11;18.90;;;14.90;;
17917;SDS011;9084;50.956;3.106;2022-12-11T04:38:38;18.50;;;15.07;;
17917;SDS011;9084;50.956;3.106;2022-12-11T04:41:06;17.50;;;13.33;;
17917;SDS011;9084;50.956;3.106;2022-12-11T04:43:34;15.77;;;12.23;;
17917;SDS011;9084;50.956;3.106;2022-12-11T04:46:09;16.00;;;14.27;;
17917;SDS011;9084;50.956;3.106;2022-12-11T04:48:39;15.47;;;13.83;;
17917;SDS011;9084;50.956;3.106;2022-12-11T04:51:10;17.70;;;14.87;;
17917;SDS011;9084;50.956;3.106;2022-12-11T04:53:37;17.77;;;15.80;;
17917;SDS011;9084;50.956;3.106;2022-12-11T04:56:03;17.67;;;14.90;;
17917;SDS011;9084;50.956;3.106;2022-12-11T04:58:30;21.27;;;16.10;;
17917;SDS011;9084;50.956;3.106;2022-12-11T05:00:58;20.73;;;15.10;;
17917;SDS011;9084;50.956;3.106;2022-12-11T05:03:23;19.63;;;13.70;;
17917;SDS011;9084;50.956;3.106;2022-12-11T05:05:53;18.23;;;12.67;;
17917;SDS011;9084;50.956;3.106;2022-12-11T05:08:19;18.80;;;13.00;;
17917;SDS011;9084;50.956;3.106;2022-12-11T05:10:58;16.40;;;14.63;;
17917;SDS011;9084;50.956;3.106;2022-12-11T05:13:26;17.03;;;15.23;;
17917;SDS011;9084;50.956;3.106;2022-12-11T05:15:53;19.57;;;14.17;;
17917;SDS011;9084;50.956;3.106;2022-12-11T05:18:20;19.00;;;14.23;;
17917;SDS011;9084;50.956;3.106;2022-12-11T05:20:59;17.77;;;13.53;;
17917;SDS011;9084;50.956;3.106;2022-12-11T05:23:27;15.23;;;13.37;;
17917;SDS011;9084;50.956;3.106;2022-12-11T05:25:57;16.43;;;14.07;;
17917;SDS011;9084;50.956;3.106;2022-12-11T05:28:32;17.50;;;14.30;;
17917;SDS011;9084;50.956;3.106;2022-12-11T05:31:03;17.23;;;14.17;;
17917;SDS011;9084;50.956;3.106;2022-12-11T05:33:34;16.77;;;14.77;;
17917;SDS011;9084;50.956;3.106;2022-12-11T05:36:02;18.40;;;14.43;;
17917;SDS011;9084;50.956;3.106;2022-12-11T05:38:28;18.60;;;14.90;;
17917;SDS011;9084;50.956;3.106;2022-12-11T05:40:58;16.23;;;14.07;;
17917;SDS011;9084;50.956;3.106;2022-12-11T05:43:27;16.17;;;14.43;;
17917;SDS011;9084;50.956;3.106;2022-12-11T05:45:55;15.90;;;14.20;;
17917;SDS011;9084;50.956;3.106;2022-12-11T05:48:29;17.63;;;15.00;;
17917;SDS011;9084;50.956;3.106;2022-12-11T05:51:02;17.57;;;14.50;;
17917;SDS011;9084;50.956;3.106;2022-12-11T05:53:28;16.17;;;13.87;;
17917;SDS011;9084;50.956;3.106;2022-12-11T05:55:59;16.07;;;13.53;;
17917;SDS011;9084;50.956;3.106;2022-12-11T05:58:29;17.17;;;14.07;;
17917;SDS011;9084;50.956;3.106;2022-12-11T06:00:55;16.17;;;13.10;;
17917;SDS011;9084;50.956;3.106;2022-12-11T06:03:22;19.33;;;12.33;;
17917;SDS011;9084;50.956;3.106;2022-12-11T06:05:47;15.10;;;11.83;;
17917;SDS011;9084;50.956;3.106;2022-12-11T06:08:13;20.23;;;14.13;;
17917;SDS011;9084;50.956;3.106;2022-12-11T06:10:45;16.70;;;13.60;;
17917;SDS011;9084;50.956;3.106;2022-12-11T06:13:15;17.03;;;14.17;;
17917;SDS011;9084;50.956;3.106;2022-12-11T06:15:41;17.40;;;14.00;;
17917;SDS011;9084;50.956;3.106;2022-12-11T06:18:07;16.83;;;13.60;;
17917;SDS011;9084;50.956;3.106;2022-12-11T06:20:34;16.30;;;13.77;;
17917;SDS011;9084;50.956;3.106;2022-12-11T06:23:00;17.77;;;13.90;;
17917;SDS011;9084;50.956;3.106;2022-12-11T06:25:26;20.17;;;13.63;;
17917;SDS011;9084;50.956;3.106;2022-12-11T06:27:52;16.60;;;14.50;;
17917;SDS011;9084;50.956;3.106;2022-12-11T06:30:18;17.47;;;13.97;;
17917;SDS011;9084;50.956;3.106;2022-12-11T06:32:44;16.60;;;12.20;;
17917;SDS011;9084;50.956;3.106;2022-12-11T06:35:16;17.13;;;13.27;;
17917;SDS011;9084;50.956;3.106;2022-12-11T06:37:44;14.23;;;11.67;;
17917;SDS011;9084;50.956;3.106;2022-12-11T06:40:13;15.17;;;11.90;;
17917;SDS011;9084;50.956;3.106;2022-12-11T06:42:41;19.37;;;15.50;;
17917;SDS011;9084;50.956;3.106;2022-12-11T06:45:08;17.80;;;14.87;;
17917;SDS011;9084;50.956;3.106;2022-12-11T06:47:36;18.70;;;15.60;;
17917;SDS011;9084;50.956;3.106;2022-12-11T06:50:04;20.23;;;16.33;;
17917;SDS011;9084;50.956;3.106;2022-12-11T06:52:32;17.77;;;14.27;;
17917;SDS011;9084;50.956;3.106;2022-12-11T06:55:01;16.97;;;14.70;;
17917;SDS011;9084;50.956;3.106;2022-12-11T06:57:29;19.97;;;16.00;;
17917;SDS011;9084;50.956;3.106;2022-12-11T06:59:55;17.57;;;15.67;;
17917;SDS011;9084;50.956;3.106;2022-12-11T07:02:21;17.70;;;15.53;;
17917;SDS011;9084;50.956;3.106;2022-12-11T07:04:47;20.17;;;15.90;;
17917;SDS011;9084;50.956;3.106;2022-12-11T07:07:12;17.77;;;14.60;;
17917;SDS011;9084;50.956;3.106;2022-12-11T07:09:39;19.63;;;15.50;;
17917;SDS011;9084;50.956;3.106;2022-12-11T07:12:07;17.83;;;15.47;;
17917;SDS011;9084;50.956;3.106;2022-12-11T07:14:34;19.93;;;15.93;;
17917;SDS011;9084;50.956;3.106;2022-12-11T07:17:00;19.37;;;15.40;;
17917;SDS011;9084;50.956;3.106;2022-12-11T07:19:26;18.43;;;15.20;;
17917;SDS011;9084;50.956;3.106;2022-12-11T07:21:52;18.90;;;15.07;;
17917;SDS011;9084;50.956;3.106;2022-12-11T07:24:20;19.90;;;15.17;;
17917;SDS011;9084;50.956;3.106;2022-12-11T07:26:48;18.47;;;15.37;;
17917;SDS011;9084;50.956;3.106;2022-12-11T07:29:19;17.53;;;14.07;;
17917;SDS011;9084;50.956;3.106;2022-12-11T07:31:45;20.53;;;15.00;;
17917;SDS011;9084;50.956;3.106;2022-12-11T07:34:12;17.90;;;14.83;;
17917;SDS011;9084;50.956;3.106;2022-12-11T07:36:38;17.17;;;15.30;;
17917;SDS011;9084;50.956;3.106;2022-12-11T07:39:07;18.63;;;14.40;;
17917;SDS011;9084;50.956;3.106;2022-12-11T07:41:38;17.60;;;14.90;;
17917;SDS011;9084;50.956;3.106;2022-12-11T07:44:07;18.17;;;15.03;;
17917;SDS011;9084;50.956;3.106;2022-12-11T07:46:32;16.57;;;14.40;;
17917;SDS011;9084;50.956;3.106;2022-12-11T07:49:00;17.83;;;14.53;;
17917;SDS011;9084;50.956;3.106;2022-12-11T07:51:29;16.73;;;14.83;;
17917;SDS011;9084;50.956;3.106;2022-12-11T07:53:57;18.33;;;15.23;;
17917;SDS011;9084;50.956;3.106;2022-12-11T07:56:28;18.47;;;14.63;;
17917;SDS011;9084;50.956;3.106;2022-12-11T07:58:55;17.43;;;14.87;;
17917;SDS011;9084;50.956;3.106;2022-12-11T08:01:24;19.30;;;16.70;;
17917;SDS011;9084;50.956;3.106;2022-12-11T08:03:54;21.20;;;16.53;;
17917;SDS011;9084;50.956;3.106;2022-12-11T08:06:24;20.53;;;16.20;;
17917;SDS011;9084;50.956;3.106;2022-12-11T08:08:52;20.50;;;16.13;;
17917;SDS011;9084;50.956;3.106;2022-12-11T08:11:19;20.63;;;17.20;;
17917;SDS011;9084;50.956;3.106;2022-12-11T08:13:45;23.30;;;16.77;;
17917;SDS011;9084;50.956;3.106;2022-12-11T08:16:12;21.47;;;16.97;;
17917;SDS011;9084;50.956;3.106;2022-12-11T08:18:42;21.07;;;16.90;;
17917;SDS011;9084;50.956;3.106;2022-12-11T08:21:10;21.37;;;16.83;;
17917;SDS011;9084;50.956;3.106;2022-12-11T08:23:38;20.63;;;16.70;;
17917;SDS011;9084;50.956;3.106;2022-12-11T08:26:05;22.00;;;17.37;;
17917;SDS011;9084;50.956;3.106;2022-12-11T08:28:35;23.30;;;17.80;;
17917;SDS011;9084;50.956;3.106;2022-12-11T08:31:04;24.10;;;18.70;;
17917;SDS011;9084;50.956;3.106;2022-12-11T08:33:33;23.57;;;18.63;;
17917;SDS011;9084;50.956;3.106;2022-12-11T08:36:04;25.17;;;18.30;;
17917;SDS011;9084;50.956;3.106;2022-12-11T08:38:32;20.97;;;16.90;;
17917;SDS011;9084;50.956;3.106;2022-12-11T08:41:06;21.23;;;17.37;;
17917;SDS011;9084;50.956;3.106;2022-12-11T08:43:35;19.50;;;17.40;;
17917;SDS011;9084;50.956;3.106;2022-12-11T08:46:01;20.13;;;16.70;;
17917;SDS011;9084;50.956;3.106;2022-12-11T08:48:27;22.70;;;17.63;;
17917;SDS011;9084;50.956;3.106;2022-12-11T08:50:53;21.07;;;17.47;;
17917;SDS011;9084;50.956;3.106;2022-12-11T08:53:19;21.77;;;17.47;;
17917;SDS011;9084;50.956;3.106;2022-12-11T08:55:45;19.33;;;15.83;;
17917;SDS011;9084;50.956;3.106;2022-12-11T08:58:10;19.17;;;15.43;;
17917;SDS011;9084;50.956;3.106;2022-12-11T09:00:36;20.90;;;14.13;;
17917;SDS011;9084;50.956;3.106;2022-12-11T09:03:02;17.13;;;14.47;;
17917;SDS011;9084;50.956;3.106;2022-12-11T09:05:28;18.00;;;14.90;;
17917;SDS011;9084;50.956;3.106;2022-12-11T09:07:57;16.97;;;14.73;;
17917;SDS011;9084;50.956;3.106;2022-12-11T09:10:22;17.97;;;14.40;;
17917;SDS011;9084;50.956;3.106;2022-12-11T09:12:51;18.43;;;15.73;;
17917;SDS011;9084;50.956;3.106;2022-12-11T09:15:19;19.83;;;15.17;;
17917;SDS011;9084;50.956;3.106;2022-12-11T09:17:47;17.97;;;15.30;;
17917;SDS011;9084;50.956;3.106;2022-12-11T09:20:13;18.00;;;15.33;;
17917;SDS011;9084;50.956;3.106;2022-12-11T09:22:40;19.63;;;16.63;;
17917;SDS011;9084;50.956;3.106;2022-12-11T09:25:07;21.27;;;16.07;;
17917;SDS011;9084;50.956;3.106;2022-12-11T09:27:33;19.13;;;16.47;;
17917;SDS011;9084;50.956;3.106;2022-12-11T09:29:59;19.57;;;16.70;;
17917;SDS011;9084;50.956;3.106;2022-12-11T09:32:25;19.27;;;16.70;;
17917;SDS011;9084;50.956;3.106;2022-12-11T09:34:56;22.30;;;15.50;;
17917;SDS011;9084;50.956;3.106;2022-12-11T09:37:24;21.87;;;14.70;;
17917;SDS011;9084;50.956;3.106;2022-12-11T09:39:52;19.80;;;15.17;;
17917;SDS011;9084;50.956;3.106;2022-12-11T09:42:32;21.93;;;14.23;;
17917;SDS011;9084;50.956;3.106;2022-12-11T09:45:14;23.00;;;18.27;;
17917;SDS011;9084;50.956;3.106;2022-12-11T09:47:42;24.20;;;18.97;;
17917;SDS011;9084;50.956;3.106;2022-12-11T09:50:20;22.87;;;18.00;;
17917;SDS011;9084;50.956;3.106;2022-12-11T09:55:29;26.03;;;19.27;;
17917;SDS011;9084;50.956;3.106;2022-12-11T09:58:22;23.73;;;18.97;;
17917;SDS011;9084;50.956;3.106;2022-12-11T10:01:02;23.53;;;19.70;;
17917;SDS011;9084;50.956;3.106;2022-12-11T10:14:11;22.77;;;18.00;;
17917;SDS011;9084;50.956;3.106;2022-12-11T10:16:46;23.90;;;18.23;;
17917;SDS011;9084;50.956;3.106;2022-12-11T10:19:20;27.43;;;19.80;;
17917;SDS011;9084;50.956;3.106;2022-12-11T10:21:49;25.33;;;18.97;;
17917;SDS011;9084;50.956;3.106;2022-12-11T10:24:19;25.17;;;19.27;;
17917;SDS011;9084;50.956;3.106;2022-12-11T10:26:55;24.87;;;19.03;;
17917;SDS011;9084;50.956;3.106;2022-12-11T10:29:24;23.37;;;18.70;;
17917;SDS011;9084;50.956;3.106;2022-12-11T10:31:56;23.00;;;18.27;;
17917;SDS011;9084;50.956;3.106;2022-12-11T10:36:58;22.70;;;17.50;;
17917;SDS011;9084;50.956;3.106;2022-12-11T10:39:26;25.10;;;19.37;;
17917;SDS011;9084;50.956;3.106;2022-12-11T10:41:56;22.33;;;17.57;;
17917;SDS011;9084;50.956;3.106;2022-12-11T10:44:25;23.17;;;17.87;;
17917;SDS011;9084;50.956;3.106;2022-12-11T10:47:04;23.03;;;17.20;;
17917;SDS011;9084;50.956;3.106;2022-12-11T10:49:34;21.20;;;17.00;;
17917;SDS011;9084;50.956;3.106;2022-12-11T10:52:00;20.57;;;17.07;;
17917;SDS011;9084;50.956;3.106;2022-12-11T10:54:35;22.43;;;15.30;;
17917;SDS011;9084;50.956;3.106;2022-12-11T10:57:06;20.80;;;16.87;;
17917;SDS011;9084;50.956;3.106;2022-12-11T11:04:53;17.87;;;13.23;;
17917;SDS011;9084;50.956;3.106;2022-12-11T11:15:13;18.17;;;15.83;;
17917;SDS011;9084;50.956;3.106;2022-12-11T11:17:56;20.43;;;15.60;;
17917;SDS011;9084;50.956;3.106;2022-12-11T11:20:33;19.43;;;15.53;;
17917;SDS011;9084;50.956;3.106;2022-12-11T11:23:02;21.27;;;16.47;;
17917;SDS011;9084;50.956;3.106;2022-12-11T11:25:38;17.37;;;14.83;;
17917;SDS011;9084;50.956;3.106;2022-12-11T11:28:23;20.17;;;16.93;;
17917;SDS011;9084;50.956;3.106;2022-12-11T11:30:56;20.27;;;16.03;;
17917;SDS011;9084;50.956;3.106;2022-12-11T11:33:33;19.97;;;15.80;;
17917;SDS011;9084;50.956;3.106;2022-12-11T11:36:05;16.07;;;13.83;;
17917;SDS011;9084;50.956;3.106;2022-12-11T11:38:34;18.07;;;13.40;;
17917;SDS011;9084;50.956;3.106;2022-12-11T11:43:50;17.07;;;14.17;;
17917;SDS011;9084;50.956;3.106;2022-12-11T11:46:28;16.70;;;12.77;;
17917;SDS011;9084;50.956;3.106;2022-12-11T11:54:57;17.33;;;14.10;;
17917;SDS011;9084;50.956;3.106;2022-12-11T11:57:38;18.07;;;14.60;;
17917;SDS011;9084;50.956;3.106;2022-12-11T12:00:17;16.30;;;12.60;;
17917;SDS011;9084;50.956;3.106;2022-12-11T12:02:55;19.40;;;14.93;;
17917;SDS011;9084;50.956;3.106;2022-12-11T12:05:42;17.27;;;14.10;;
17917;SDS011;9084;50.956;3.106;2022-12-11T12:08:26;19.50;;;15.83;;
17917;SDS011;9084;50.956;3.106;2022-12-11T12:14:01;22.43;;;16.13;;
17917;SDS011;9084;50.956;3.106;2022-12-11T12:25:27;21.73;;;17.00;;
17917;SDS011;9084;50.956;3.106;2022-12-11T12:28:10;22.83;;;17.57;;
17917;SDS011;9084;50.956;3.106;2022-12-11T12:33:42;20.50;;;15.90;;
17917;SDS011;9084;50.956;3.106;2022-12-11T12:36:33;18.70;;;16.23;;
17917;SDS011;9084;50.956;3.106;2022-12-11T12:41:47;19.60;;;15.47;;
17917;SDS011;9084;50.956;3.106;2022-12-11T12:44:23;19.47;;;15.60;;
17917;SDS011;9084;50.956;3.106;2022-12-11T12:49:48;18.67;;;15.27;;
17917;SDS011;9084;50.956;3.106;2022-12-11T12:52:18;18.47;;;15.63;;
17917;SDS011;9084;50.956;3.106;2022-12-11T12:57:55;14.87;;;13.27;;
17917;SDS011;9084;50.956;3.106;2022-12-11T13:00:35;16.10;;;13.73;;
17917;SDS011;9084;50.956;3.106;2022-12-11T13:03:13;16.30;;;11.60;;
17917;SDS011;9084;50.956;3.106;2022-12-11T13:05:41;16.23;;;14.37;;
17917;SDS011;9084;50.956;3.106;2022-12-11T13:08:09;18.20;;;14.90;;
17917;SDS011;9084;50.956;3.106;2022-12-11T13:10:37;16.17;;;14.30;;
17917;SDS011;9084;50.956;3.106;2022-12-11T13:13:05;16.90;;;12.13;;
17917;SDS011;9084;50.956;3.106;2022-12-11T13:15:54;14.03;;;12.47;;
17917;SDS011;9084;50.956;3.106;2022-12-11T13:18:46;13.33;;;11.67;;
17917;SDS011;9084;50.956;3.106;2022-12-11T13:23:47;15.07;;;13.37;;
17917;SDS011;9084;50.956;3.106;2022-12-11T13:26:25;14.97;;;13.03;;
17917;SDS011;9084;50.956;3.106;2022-12-11T13:28:53;12.93;;;11.13;;
17917;SDS011;9084;50.956;3.106;2022-12-11T13:31:43;14.60;;;11.47;;
17917;SDS011;9084;50.956;3.106;2022-12-11T13:36:49;14.03;;;12.53;;
17917;SDS011;9084;50.956;3.106;2022-12-11T13:39:24;15.60;;;12.60;;
17917;SDS011;9084;50.956;3.106;2022-12-11T13:42:05;16.73;;;12.40;;
17917;SDS011;9084;50.956;3.106;2022-12-11T13:44:47;16.67;;;12.57;;
17917;SDS011;9084;50.956;3.106;2022-12-11T13:47:14;14.77;;;12.87;;
17917;SDS011;9084;50.956;3.106;2022-12-11T13:49:43;13.83;;;12.23;;
17917;SDS011;9084;50.956;3.106;2022-12-11T13:52:17;14.17;;;12.47;;
17917;SDS011;9084;50.956;3.106;2022-12-11T13:54:53;14.63;;;12.97;;
17917;SDS011;9084;50.956;3.106;2022-12-11T13:57:21;14.53;;;12.97;;
17917;SDS011;9084;50.956;3.106;2022-12-11T13:59:53;12.67;;;11.27;;
17917;SDS011;9084;50.956;3.106;2022-12-11T14:02:21;13.53;;;12.13;;
17917;SDS011;9084;50.956;3.106;2022-12-11T14:05:03;12.90;;;11.60;;
17917;SDS011;9084;50.956;3.106;2022-12-11T14:07:39;12.67;;;11.30;;
17917;SDS011;9084;50.956;3.106;2022-12-11T14:10:18;12.30;;;11.10;;
17917;SDS011;9084;50.956;3.106;2022-12-11T14:12:56;12.73;;;11.37;;
17917;SDS011;9084;50.956;3.106;2022-12-11T14:15:31;13.00;;;11.33;;
17917;SDS011;9084;50.956;3.106;2022-12-11T14:17:59;13.00;;;10.30;;
17917;SDS011;9084;50.956;3.106;2022-12-11T14:20:30;13.77;;;12.23;;
17917;SDS011;9084;50.956;3.106;2022-12-11T14:23:15;13.13;;;11.83;;
17917;SDS011;9084;50.956;3.106;2022-12-11T14:25:50;13.70;;;12.13;;
17917;SDS011;9084;50.956;3.106;2022-12-11T14:28:23;12.50;;;11.20;;
17917;SDS011;9084;50.956;3.106;2022-12-11T14:30:57;13.03;;;11.63;;
17917;SDS011;9084;50.956;3.106;2022-12-11T14:33:31;12.63;;;10.57;;
17917;SDS011;9084;50.956;3.106;2022-12-11T14:36:05;11.57;;;9.53;;
17917;SDS011;9084;50.956;3.106;2022-12-11T14:38:35;13.83;;;9.70;;
17917;SDS011;9084;50.956;3.106;2022-12-11T14:41:20;11.60;;;10.40;;
17917;SDS011;9084;50.956;3.106;2022-12-11T14:43:59;12.93;;;11.63;;
17917;SDS011;9084;50.956;3.106;2022-12-11T14:46:52;11.40;;;10.20;;
17917;SDS011;9084;50.956;3.106;2022-12-11T14:49:22;12.10;;;10.83;;
17917;SDS011;9084;50.956;3.106;2022-12-11T14:52:03;13.07;;;10.63;;
17917;SDS011;9084;50.956;3.106;2022-12-11T14:54:31;12.33;;;9.97;;
17917;SDS011;9084;50.956;3.106;2022-12-11T14:57:14;12.97;;;11.30;;
17917;SDS011;9084;50.956;3.106;2022-12-11T14:59:47;11.23;;;10.03;;
17917;SDS011;9084;50.956;3.106;2022-12-11T15:05:14;11.27;;;10.13;;
17917;SDS011;9084;50.956;3.106;2022-12-11T15:07:59;10.00;;;8.67;;
17917;SDS011;9084;50.956;3.106;2022-12-11T15:10:34;12.50;;;10.33;;
17917;SDS011;9084;50.956;3.106;2022-12-11T15:13:03;11.37;;;10.17;;
17917;SDS011;9084;50.956;3.106;2022-12-11T15:15:32;12.33;;;10.00;;
17917;SDS011;9084;50.956;3.106;2022-12-11T15:18:11;10.57;;;9.57;;
17917;SDS011;9084;50.956;3.106;2022-12-11T15:20:52;10.60;;;9.50;;
17917;SDS011;9084;50.956;3.106;2022-12-11T15:23:22;11.80;;;10.60;;
17917;SDS011;9084;50.956;3.106;2022-12-11T15:25:49;12.07;;;10.30;;
17917;SDS011;9084;50.956;3.106;2022-12-11T15:31:01;11.63;;;9.33;;
17917;SDS011;9084;50.956;3.106;2022-12-11T15:33:43;11.80;;;10.57;;
17917;SDS011;9084;50.956;3.106;2022-12-11T15:36:24;13.83;;;11.03;;
17917;SDS011;9084;50.956;3.106;2022-12-11T15:38:58;10.87;;;9.77;;
17917;SDS011;9084;50.956;3.106;2022-12-11T15:41:25;10.93;;;9.83;;
17917;SDS011;9084;50.956;3.106;2022-12-11T15:43:53;11.27;;;9.87;;
17917;SDS011;9084;50.956;3.106;2022-12-11T15:46:22;10.77;;;9.67;;
17917;SDS011;9084;50.956;3.106;2022-12-11T15:48:52;10.70;;;9.60;;
17917;SDS011;9084;50.956;3.106;2022-12-11T15:51:19;10.67;;;9.53;;
17917;SDS011;9084;50.956;3.106;2022-12-11T15:53:46;10.53;;;9.43;;
17917;SDS011;9084;50.956;3.106;2022-12-11T15:56:13;11.50;;;9.30;;
17917;SDS011;9084;50.956;3.106;2022-12-11T15:58:41;10.80;;;9.53;;
17917;SDS011;9084;50.956;3.106;2022-12-11T16:01:08;11.87;;;9.67;;
17917;SDS011;9084;50.956;3.106;2022-12-11T16:03:34;12.90;;;10.93;;
17917;SDS011;9084;50.956;3.106;2022-12-11T16:06:02;11.73;;;10.50;;
17917;SDS011;9084;50.956;3.106;2022-12-11T16:08:28;13.47;;;12.10;;
17917;SDS011;9084;50.956;3.106;2022-12-11T16:10:54;13.37;;;11.57;;
17917;SDS011;9084;50.956;3.106;2022-12-11T16:13:20;11.80;;;10.37;;
17917;SDS011;9084;50.956;3.106;2022-12-11T16:15:49;12.23;;;11.00;;
17917;SDS011;9084;50.956;3.106;2022-12-11T16:18:17;12.73;;;10.77;;
17917;SDS011;9084;50.956;3.106;2022-12-11T16:20:47;13.23;;;11.30;;
17917;SDS011;9084;50.956;3.106;2022-12-11T16:23:14;13.03;;;11.60;;
17917;SDS011;9084;50.956;3.106;2022-12-11T16:25:41;13.07;;;11.73;;